createdAt,value
2022-10-11T00:00:38.599Z,94410.59
2022-10-11T00:01:35.424Z,94419.16
2022-10-11T00:02:32.119Z,94399.72
2022-10-11T00:03:28.956Z,94413.81
2022-10-11T00:04:25.761Z,94374.13
2022-10-11T00:05:22.475Z,94384.84
2022-10-11T00:06:19.032Z,94415.63
2022-10-11T00:07:15.847Z,94416.47
2022-10-11T00:08:13.708Z,94413.38
2022-10-11T00:09:11.666Z,94414.50
2022-10-11T00:10:09.404Z,94389.78
2022-10-11T00:11:07.751Z,94407.00
2022-10-11T00:12:04.513Z,94409.84
2022-10-11T00:13:01.262Z,94391.94
2022-10-11T00:13:58.995Z,94414.16
2022-10-11T00:14:55.637Z,94408.19
2022-10-11T00:15:52.535Z,94393.47
2022-10-11T00:16:49.144Z,94397.31
2022-10-11T00:17:46.036Z,94406.19
2022-10-11T00:18:42.716Z,94397.56
2022-10-11T00:19:39.268Z,94396.59
2022-10-11T00:20:35.829Z,94401.63
2022-10-11T00:21:32.483Z,94396.72
2022-10-11T00:22:29.180Z,94400.66
2022-10-11T00:23:25.790Z,94397.91
2022-10-11T00:24:22.424Z,94407.16
2022-10-11T00:25:19.366Z,94407.69
2022-10-11T00:26:18.482Z,94408.81
2022-10-11T00:27:15.288Z,94369.38
2022-10-11T00:28:11.899Z,94416.06
2022-10-11T00:29:08.646Z,94417.69
2022-10-11T00:30:09.821Z,94413.00
2022-10-11T00:31:11.344Z,94404.91
2022-10-11T00:32:08.075Z,94384.03
2022-10-11T00:33:04.637Z,94419.88
2022-10-11T00:34:01.317Z,94431.69
2022-10-11T00:34:59.806Z,94425.69
2022-10-11T00:35:56.433Z,94423.91
2022-10-11T00:36:53.055Z,94417.25
2022-10-11T00:37:49.688Z,94384.47
2022-10-11T00:38:46.930Z,94421.91
2022-10-11T00:39:43.523Z,94425.91
2022-10-11T00:40:40.281Z,94422.69
2022-10-11T00:41:36.936Z,94421.84
2022-10-11T00:42:33.824Z,94406.69
2022-10-11T00:43:32.680Z,94424.56
2022-10-11T00:44:32.649Z,94411.88
2022-10-11T00:45:32.213Z,94419.47
2022-10-11T00:46:31.199Z,94415.41
2022-10-11T00:47:27.866Z,94415.72
2022-10-11T00:48:40.036Z,94413.72
2022-10-11T00:49:41.254Z,94385.31
2022-10-11T00:50:37.915Z,94406.41
2022-10-11T00:51:47.706Z,94419.38
2022-10-11T00:52:56.562Z,94366.66
2022-10-11T00:53:53.996Z,94415.06
2022-10-11T00:54:51.221Z,94368.59
2022-10-11T00:55:56.312Z,94394.06
2022-10-11T00:56:58.674Z,94389.00
2022-10-11T00:57:57.908Z,94419.38
2022-10-11T00:58:55.880Z,94408.72
2022-10-11T00:59:55.036Z,94412.03
2022-10-11T01:00:52.246Z,94414.81
2022-10-11T01:01:49.435Z,94405.34
2022-10-11T01:02:47.119Z,94408.66
2022-10-11T01:03:44.862Z,94409.19
2022-10-11T01:04:42.200Z,94401.16
2022-10-11T01:05:40.081Z,94403.94
2022-10-11T01:06:36.722Z,94394.19
2022-10-11T01:07:34.354Z,94402.06
2022-10-11T01:08:31.571Z,94401.00
2022-10-11T01:09:29.629Z,94389.66
2022-10-11T01:10:27.815Z,94360.34
2022-10-11T01:11:27.650Z,94385.03
2022-10-11T01:12:27.464Z,94345.56
2022-10-11T01:13:42.745Z,94389.25
2022-10-11T01:14:53.133Z,94376.41
2022-10-11T01:16:06.405Z,94396.97
2022-10-11T01:17:44.287Z,94382.03
2022-10-11T01:19:03.824Z,94380.97
2022-10-11T01:20:25.265Z,94384.78
2022-10-11T01:21:27.965Z,94381.50
2022-10-11T01:22:33.224Z,94380.03
2022-10-11T01:23:41.702Z,94380.84
2022-10-11T01:24:38.242Z,94383.34
2022-10-11T01:26:02.964Z,94383.25
2022-10-11T01:26:59.817Z,94390.63
2022-10-11T01:27:56.498Z,94392.75
2022-10-11T01:29:14.900Z,94384.53
2022-10-11T01:30:34.209Z,94386.06
2022-10-11T01:31:58.935Z,94385.59
2022-10-11T01:33:11.053Z,94388.63
2022-10-11T01:34:19.625Z,94359.59
2022-10-11T01:35:21.966Z,94388.31
2022-10-11T01:36:31.399Z,94392.66
2022-10-11T01:37:52.327Z,94397.47
2022-10-11T01:38:59.674Z,94370.97
2022-10-11T01:40:05.034Z,94394.75
2022-10-11T01:41:13.859Z,94397.69
2022-10-11T01:42:13.355Z,94398.81
2022-10-11T01:43:10.260Z,94311.34
2022-10-11T01:44:09.358Z,94390.50
2022-10-11T01:45:09.697Z,94393.06
2022-10-11T01:46:08.839Z,94387.50
2022-10-11T01:47:05.765Z,94377.13
2022-10-11T01:48:11.704Z,94389.72
2022-10-11T01:49:09.185Z,94385.28
2022-10-11T01:50:33.198Z,94389.81
2022-10-11T01:51:47.480Z,94378.81
2022-10-11T01:52:45.391Z,94389.06
2022-10-11T01:54:00.536Z,94388.19
2022-10-11T01:55:18.794Z,94383.69
2022-10-11T01:56:30.297Z,94384.94
2022-10-11T01:57:45.600Z,94376.91
2022-10-11T01:59:00.276Z,94386.47
2022-10-11T02:00:19.400Z,94388.50
2022-10-11T02:01:47.168Z,94390.94
2022-10-11T02:03:15.745Z,94390.38
2022-10-11T02:04:40.252Z,94383.25
2022-10-11T02:06:01.253Z,94356.75
2022-10-11T02:07:01.376Z,94390.38
2022-10-11T02:08:15.861Z,94379.94
2022-10-11T02:09:20.838Z,94388.59
2022-10-11T02:10:27.015Z,94376.91
2022-10-11T02:11:29.698Z,94386.38
2022-10-11T02:12:58.016Z,94389.72
2022-10-11T02:14:00.597Z,94379.81
2022-10-11T02:14:58.217Z,94389.25
2022-10-11T02:15:57.428Z,94338.41
2022-10-11T02:17:19.469Z,94386.56
2022-10-11T02:18:20.740Z,94381.94
2022-10-11T02:19:21.871Z,94371.03
2022-10-11T02:20:23.481Z,94287.22
2022-10-11T02:21:23.033Z,94374.13
2022-10-11T02:22:28.483Z,94377.13
2022-10-11T02:23:33.226Z,94375.47
2022-10-11T02:24:33.754Z,94383.03
2022-10-11T02:25:34.481Z,94384.13
2022-10-11T02:26:33.181Z,94371.84
2022-10-11T02:27:33.234Z,94346.84
2022-10-11T02:28:33.608Z,94382.59
2022-10-11T02:29:33.796Z,94381.22
2022-10-11T02:30:31.212Z,94383.34
2022-10-11T02:31:31.269Z,94378.78
2022-10-11T02:32:30.361Z,94343.31
2022-10-11T02:33:33.588Z,94382.22
2022-10-11T02:34:37.455Z,94384.53
2022-10-11T02:35:39.264Z,94382.28
2022-10-11T02:37:10.411Z,94388.09
2022-10-11T02:38:19.748Z,94379.28
2022-10-11T02:39:23.492Z,94379.38
2022-10-11T02:40:23.965Z,94365.13
2022-10-11T02:41:30.067Z,94376.47
2022-10-11T02:42:37.338Z,94372.78
2022-10-11T02:43:39.819Z,94372.16
2022-10-11T02:44:39.269Z,94366.53
2022-10-11T02:45:39.715Z,94378.81
2022-10-11T02:46:38.275Z,94348.88
2022-10-11T02:47:35.238Z,94367.66
2022-10-11T02:48:33.661Z,94342.31
2022-10-11T02:49:32.161Z,94364.44
2022-10-11T02:50:29.077Z,94369.59
2022-10-11T02:51:27.317Z,94370.25
2022-10-11T02:52:23.859Z,94368.53
2022-10-11T02:53:21.344Z,94369.91
2022-10-11T02:54:18.094Z,94369.34
2022-10-11T02:55:14.756Z,94361.63
2022-10-11T02:56:11.377Z,94370.91
2022-10-11T02:57:08.169Z,94366.53
2022-10-11T02:58:04.775Z,94319.59
2022-10-11T02:59:01.515Z,94361.72
2022-10-11T02:59:58.144Z,94357.72
2022-10-11T03:00:54.813Z,94365.41
2022-10-11T03:01:51.469Z,94357.41
2022-10-11T03:02:48.171Z,94358.91
2022-10-11T03:03:44.821Z,94357.84
2022-10-11T03:04:41.616Z,94316.13
2022-10-11T03:05:41.540Z,94345.16
2022-10-11T03:06:38.273Z,94324.69
2022-10-11T03:07:34.922Z,94317.78
2022-10-11T03:08:31.543Z,94346.16
2022-10-11T03:09:28.164Z,94358.56
2022-10-11T03:10:24.832Z,94341.28
2022-10-11T03:11:21.564Z,94344.19
2022-10-11T03:12:18.198Z,94349.91
2022-10-11T03:13:18.147Z,94349.63
2022-10-11T03:14:15.144Z,94285.91
2022-10-11T03:15:11.726Z,94352.59
2022-10-11T03:16:08.796Z,94349.69
2022-10-11T03:17:24.090Z,94350.72
2022-10-11T03:18:22.231Z,94350.81
2022-10-11T03:19:19.495Z,94352.63
2022-10-11T03:20:18.476Z,94334.56
2022-10-11T03:21:15.135Z,94349.63
2022-10-11T03:22:11.800Z,94349.16
2022-10-11T03:23:08.584Z,94292.81
2022-10-11T03:24:05.524Z,94344.25
2022-10-11T03:25:04.399Z,94351.72
2022-10-11T03:26:01.529Z,94344.38
2022-10-11T03:26:58.244Z,94346.16
2022-10-11T03:27:54.843Z,94322.50
2022-10-11T03:28:51.699Z,94348.75
2022-10-11T03:29:48.335Z,94320.38
2022-10-11T03:30:48.358Z,94327.06
2022-10-11T03:31:44.922Z,94341.94
2022-10-11T03:32:41.573Z,94355.06
2022-10-11T03:33:38.375Z,94348.84
2022-10-11T03:34:35.093Z,94352.84
2022-10-11T03:35:31.675Z,94324.53
2022-10-11T03:36:28.313Z,94352.13
2022-10-11T03:37:25.499Z,94317.22
2022-10-11T03:38:22.784Z,94351.84
2022-10-11T03:39:19.765Z,94334.16
2022-10-11T03:40:16.321Z,94346.16
2022-10-11T03:41:12.961Z,94349.38
2022-10-11T03:42:09.525Z,94355.16
2022-10-11T03:43:06.115Z,94348.34
2022-10-11T03:44:02.734Z,94347.56
2022-10-11T03:45:01.729Z,94348.28
2022-10-11T03:45:58.332Z,94351.63
2022-10-11T03:46:54.919Z,94340.94
2022-10-11T03:47:51.496Z,94342.38
2022-10-11T03:48:48.670Z,94341.94
2022-10-11T03:49:45.265Z,94341.94
2022-10-11T03:50:42.406Z,94346.16
2022-10-11T03:51:39.052Z,94340.03
2022-10-11T03:52:36.439Z,94330.56
2022-10-11T03:53:33.101Z,94339.38
2022-10-11T03:54:29.701Z,94344.25
2022-10-11T03:55:26.612Z,94339.38
2022-10-11T03:56:23.180Z,94326.31
2022-10-11T03:57:20.113Z,94336.78
2022-10-11T03:58:16.708Z,94336.69
2022-10-11T03:59:13.334Z,94329.53
2022-10-11T04:00:10.309Z,94342.66
2022-10-11T04:01:07.250Z,94346.47
2022-10-11T04:02:04.479Z,94306.66
2022-10-11T04:03:03.710Z,94349.75
2022-10-11T04:04:00.345Z,94346.47
2022-10-11T04:04:56.992Z,94341.38
2022-10-11T04:05:53.689Z,94346.41
2022-10-11T04:06:50.340Z,94348.81
2022-10-11T04:07:46.979Z,94342.50
2022-10-11T04:08:43.641Z,94332.88
2022-10-11T04:09:40.306Z,94310.72
2022-10-11T04:10:36.963Z,94341.91
2022-10-11T04:11:33.559Z,94339.44
2022-10-11T04:12:30.241Z,94339.44
2022-10-11T04:13:26.815Z,94331.53
2022-10-11T04:14:23.416Z,94337.44
2022-10-11T04:15:20.301Z,94336.13
2022-10-11T04:16:16.907Z,94332.78
2022-10-11T04:17:13.483Z,94274.09
2022-10-11T04:18:10.272Z,94334.88
2022-10-11T04:19:07.098Z,94333.91
2022-10-11T04:20:04.061Z,94332.88
2022-10-11T04:21:00.651Z,94337.97
2022-10-11T04:21:57.242Z,94331.75
2022-10-11T04:22:53.819Z,94339.25
2022-10-11T04:23:50.634Z,94323.84
2022-10-11T04:24:47.234Z,94339.41
2022-10-11T04:25:45.498Z,94340.75
2022-10-11T04:26:42.140Z,94310.63
2022-10-11T04:27:38.892Z,94340.13
2022-10-11T04:28:36.286Z,94336.13
2022-10-11T04:29:33.259Z,94336.56
2022-10-11T04:30:29.994Z,94345.38
2022-10-11T04:31:26.867Z,94317.91
2022-10-11T04:32:23.995Z,94347.72
2022-10-11T04:33:20.750Z,94336.88
2022-10-11T04:34:17.872Z,94344.16
2022-10-11T04:35:15.028Z,94348.84
2022-10-11T04:36:12.133Z,94348.28
2022-10-11T04:37:08.697Z,94337.94
2022-10-11T04:38:05.394Z,94345.94
2022-10-11T04:39:02.138Z,94347.56
2022-10-11T04:39:58.740Z,94310.13
2022-10-11T04:40:55.487Z,94345.94
2022-10-11T04:41:52.149Z,94348.84
2022-10-11T04:42:50.606Z,94318.91
2022-10-11T04:43:47.393Z,94348.34
2022-10-11T04:44:43.957Z,94349.53
2022-10-11T04:45:40.544Z,94346.16
2022-10-11T04:46:37.125Z,94349.94
2022-10-11T04:47:33.783Z,94349.28
2022-10-11T04:48:31.146Z,94355.97
2022-10-11T04:49:27.685Z,94354.53
2022-10-11T04:50:24.393Z,94345.06
2022-10-11T04:51:21.199Z,94350.69
2022-10-11T04:52:20.158Z,94349.03
2022-10-11T04:53:20.185Z,94345.25
2022-10-11T04:54:16.811Z,94337.38
2022-10-11T04:55:13.442Z,94353.19
2022-10-11T04:56:11.575Z,94322.75
2022-10-11T04:57:08.374Z,94321.59
2022-10-11T04:58:04.930Z,94342.13
2022-10-11T04:59:01.495Z,94348.00
2022-10-11T04:59:58.060Z,94317.44
2022-10-11T05:00:55.234Z,94349.75
2022-10-11T05:01:51.841Z,94353.34
2022-10-11T05:02:48.793Z,94348.59
2022-10-11T05:03:45.384Z,94362.66
2022-10-11T05:04:42.864Z,94311.47
2022-10-11T05:05:39.443Z,94295.38
2022-10-11T05:06:36.054Z,94353.00
2022-10-11T05:07:32.764Z,94311.13
2022-10-11T05:08:29.424Z,94331.47
2022-10-11T05:09:26.002Z,94348.50
2022-10-11T05:10:22.572Z,94340.25
2022-10-11T05:11:19.469Z,94346.28
2022-10-11T05:12:16.093Z,94341.25
2022-10-11T05:13:12.690Z,94348.28
2022-10-11T05:14:09.355Z,94347.75
2022-10-11T05:15:06.786Z,94335.41
2022-10-11T05:16:10.294Z,94346.00
2022-10-11T05:17:07.668Z,94312.25
2022-10-11T05:18:04.298Z,94343.78
2022-10-11T05:19:00.982Z,94336.06
2022-10-11T05:19:57.576Z,94342.75
2022-10-11T05:21:06.112Z,94343.72
2022-10-11T05:22:02.844Z,94340.88
2022-10-11T05:22:59.484Z,94338.28
2022-10-11T05:23:57.077Z,94337.66
2022-10-11T05:24:53.704Z,94338.91
2022-10-11T05:25:50.271Z,94341.69
2022-10-11T05:26:46.926Z,94335.91
2022-10-11T05:27:43.556Z,94362.66
2022-10-11T05:28:40.259Z,94341.00
2022-10-11T05:29:36.894Z,94343.47
2022-10-11T05:30:33.969Z,94341.19
2022-10-11T05:31:30.612Z,94351.75
2022-10-11T05:32:28.111Z,94350.88
2022-10-11T05:33:25.142Z,94355.88
2022-10-11T05:34:21.906Z,94342.06
2022-10-11T05:35:18.557Z,94299.72
2022-10-11T05:36:15.397Z,94344.09
2022-10-11T05:37:11.994Z,94350.19
2022-10-11T05:38:08.562Z,94350.19
2022-10-11T05:39:05.247Z,94346.31
2022-10-11T05:40:01.904Z,94354.34
2022-10-11T05:41:03.474Z,94356.69
2022-10-11T05:42:00.140Z,94359.91
2022-10-11T05:42:56.729Z,94352.38
2022-10-11T05:43:53.324Z,94366.28
2022-10-11T05:44:49.960Z,94368.78
2022-10-11T05:45:46.614Z,94368.19
2022-10-11T05:46:43.276Z,94365.19
2022-10-11T05:47:39.827Z,94374.97
2022-10-11T05:48:36.534Z,94338.47
2022-10-11T05:49:33.197Z,94359.50
2022-10-11T05:50:30.228Z,94367.22
2022-10-11T05:51:26.805Z,94371.69
2022-10-11T05:52:23.520Z,94363.31
2022-10-11T05:53:20.121Z,94376.91
2022-10-11T05:54:16.693Z,94370.56
2022-10-11T05:55:13.397Z,94378.34
2022-10-11T05:56:22.667Z,94365.78
2022-10-11T05:57:19.288Z,94377.19
2022-10-11T05:58:18.564Z,94386.47
2022-10-11T05:59:15.176Z,94381.09
2022-10-11T06:00:12.114Z,94386.63
2022-10-11T06:01:16.599Z,94386.50
2022-10-11T06:02:13.575Z,94387.34
2022-10-11T06:03:12.375Z,94389.81
2022-10-11T06:04:09.212Z,94370.22
2022-10-11T06:05:06.087Z,94384.66
2022-10-11T06:06:03.305Z,94378.50
2022-10-11T06:06:59.945Z,94381.38
2022-10-11T06:07:58.295Z,94380.84
2022-10-11T06:08:55.282Z,94374.53
2022-10-11T06:09:52.078Z,94382.41
2022-10-11T06:10:48.618Z,94378.31
2022-10-11T06:11:45.571Z,94385.56
2022-10-11T06:12:42.148Z,94334.63
2022-10-11T06:13:38.835Z,94374.56
2022-10-11T06:14:36.078Z,94342.84
2022-10-11T06:15:33.373Z,94380.59
2022-10-11T06:16:29.949Z,94370.72
2022-10-11T06:17:26.889Z,94378.44
2022-10-11T06:18:23.459Z,94374.00
2022-10-11T06:19:20.014Z,94376.25
2022-10-11T06:20:17.052Z,94307.34
2022-10-11T06:21:13.814Z,94339.22
2022-10-11T06:22:12.294Z,94370.22
2022-10-11T06:23:08.918Z,94377.97
2022-10-11T06:24:06.236Z,94376.44
2022-10-11T06:25:02.851Z,94353.47
2022-10-11T06:26:01.560Z,94373.00
2022-10-11T06:26:58.311Z,94359.09
2022-10-11T06:27:55.104Z,94366.28
2022-10-11T06:28:52.748Z,94363.22
2022-10-11T06:29:49.433Z,94364.59
2022-10-11T06:30:46.119Z,94369.03
2022-10-11T06:31:43.168Z,94367.28
2022-10-11T06:32:40.139Z,94363.22
2022-10-11T06:33:37.266Z,94349.06
2022-10-11T06:34:33.938Z,94360.66
2022-10-11T06:35:30.504Z,94357.00
2022-10-11T06:36:27.412Z,94346.47
2022-10-11T06:37:24.261Z,94364.38
2022-10-11T06:38:20.822Z,94363.75
2022-10-11T06:39:17.362Z,94368.44
2022-10-11T06:40:14.005Z,94364.34
2022-10-11T06:41:17.416Z,94368.44
2022-10-11T06:42:13.975Z,94355.97
2022-10-11T06:43:10.581Z,94362.56
2022-10-11T06:44:10.742Z,94369.09
2022-10-11T06:45:10.251Z,94363.22
2022-10-11T06:46:07.470Z,94361.97
2022-10-11T06:47:06.649Z,94365.91
2022-10-11T06:48:05.735Z,94355.78
2022-10-11T06:49:02.479Z,94367.47
2022-10-11T06:49:59.058Z,94362.81
2022-10-11T06:51:00.277Z,94361.97
2022-10-11T06:51:57.334Z,94350.28
2022-10-11T06:52:53.875Z,94362.75
2022-10-11T06:53:51.916Z,94343.19
2022-10-11T06:54:48.453Z,94364.00
2022-10-11T06:55:45.017Z,94362.56
2022-10-11T06:56:41.574Z,94362.88
2022-10-11T06:57:38.569Z,94329.81
2022-10-11T06:58:35.537Z,94343.78
2022-10-11T06:59:32.143Z,94373.44
2022-10-11T07:00:28.716Z,94371.97
2022-10-11T07:01:26.566Z,94369.09
2022-10-11T07:02:23.304Z,94368.34
2022-10-11T07:03:19.896Z,94377.16
2022-10-11T07:04:16.530Z,94345.00
2022-10-11T07:05:13.124Z,94369.81
2022-10-11T07:06:12.399Z,94368.34
2022-10-11T07:07:09.020Z,94349.84
2022-10-11T07:08:06.989Z,94372.22
2022-10-11T07:09:06.579Z,94375.25
2022-10-11T07:10:04.007Z,94375.44
2022-10-11T07:11:03.317Z,94376.28
2022-10-11T07:12:00.019Z,94371.88
2022-10-11T07:12:56.664Z,94332.13
2022-10-11T07:13:58.837Z,94383.28
2022-10-11T07:14:55.497Z,94385.97
2022-10-11T07:15:52.076Z,94394.97
2022-10-11T07:16:48.762Z,94376.13
2022-10-11T07:17:45.479Z,94382.00
2022-10-11T07:18:42.227Z,94389.94
2022-10-11T07:19:38.882Z,94386.41
2022-10-11T07:20:36.090Z,94385.47
2022-10-11T07:21:34.304Z,94383.13
2022-10-11T07:22:30.959Z,94385.03
2022-10-11T07:23:27.610Z,94349.34
2022-10-11T07:24:24.308Z,94391.94
2022-10-11T07:25:20.911Z,94385.56
2022-10-11T07:26:18.590Z,94387.25
2022-10-11T07:27:15.275Z,94385.09
2022-10-11T07:28:12.819Z,94389.06
2022-10-11T07:29:10.944Z,94372.50
2022-10-11T07:30:08.054Z,94382.59
2022-10-11T07:31:07.522Z,94376.97
2022-10-11T07:32:04.324Z,94376.03
2022-10-11T07:33:01.018Z,94356.25
2022-10-11T07:33:57.777Z,94336.78
2022-10-11T07:34:54.470Z,94378.19
2022-10-11T07:35:51.150Z,94350.34
2022-10-11T07:36:48.068Z,94370.34
2022-10-11T07:37:45.024Z,94356.22
2022-10-11T07:38:44.186Z,94380.53
2022-10-11T07:39:40.877Z,94380.44
2022-10-11T07:40:45.512Z,94380.00
2022-10-11T07:41:45.925Z,94378.59
2022-10-11T07:42:42.747Z,94379.91
2022-10-11T07:43:39.718Z,94385.53
2022-10-11T07:44:36.649Z,94389.59
2022-10-11T07:45:33.400Z,94385.38
2022-10-11T07:46:30.172Z,94391.16
2022-10-11T07:47:26.739Z,94392.38
2022-10-11T07:48:23.459Z,94358.56
2022-10-11T07:49:20.125Z,94367.72
2022-10-11T07:50:16.959Z,94399.88
2022-10-11T07:51:17.257Z,94390.66
2022-10-11T07:52:13.904Z,94386.59
2022-10-11T07:53:10.511Z,94397.91
2022-10-11T07:54:07.560Z,94390.56
2022-10-11T07:55:04.866Z,94396.88
2022-10-11T07:56:02.323Z,94401.03
2022-10-11T07:56:59.506Z,94395.41
2022-10-11T07:57:57.033Z,94397.47
2022-10-11T07:58:56.242Z,94398.44
2022-10-11T07:59:52.848Z,94401.97
2022-10-11T08:00:53.613Z,94398.34
2022-10-11T08:01:50.418Z,94399.72
2022-10-11T08:02:47.223Z,94400.31
2022-10-11T08:03:44.050Z,94397.66
2022-10-11T08:04:40.631Z,94409.03
2022-10-11T08:05:39.119Z,94406.13
2022-10-11T08:06:36.655Z,94406.72
2022-10-11T08:07:33.311Z,94412.69
2022-10-11T08:08:31.032Z,94405.25
2022-10-11T08:09:27.693Z,94406.63
2022-10-11T08:10:25.833Z,94322.41
2022-10-11T08:11:28.981Z,94403.16
2022-10-11T08:12:25.575Z,94400.91
2022-10-11T08:13:22.229Z,94402.41
2022-10-11T08:14:19.090Z,94373.66
2022-10-11T08:15:16.541Z,94402.22
2022-10-11T08:16:13.479Z,94370.41
2022-10-11T08:17:10.204Z,94395.31
2022-10-11T08:18:06.787Z,94402.84
2022-10-11T08:19:03.507Z,94374.03
2022-10-11T08:20:00.543Z,94376.13
2022-10-11T08:20:57.216Z,94371.47
2022-10-11T08:21:53.865Z,94403.41
2022-10-11T08:22:50.544Z,94374.78
2022-10-11T08:23:49.416Z,94396.00
2022-10-11T08:24:46.287Z,94402.75
2022-10-11T08:25:49.599Z,94393.50
2022-10-11T08:26:48.700Z,94388.19
2022-10-11T08:27:45.433Z,94397.53
2022-10-11T08:28:42.130Z,94387.47
2022-10-11T08:29:39.005Z,94395.09
2022-10-11T08:30:36.448Z,94394.63
2022-10-11T08:31:35.394Z,94387.34
2022-10-11T08:32:32.120Z,94361.81
2022-10-11T08:33:28.880Z,94384.53
2022-10-11T08:34:25.573Z,94390.66
2022-10-11T08:35:22.183Z,94392.50
2022-10-11T08:36:19.046Z,94376.78
2022-10-11T08:37:15.872Z,94385.84
2022-10-11T08:38:13.045Z,94389.66
2022-10-11T08:39:09.637Z,94397.44
2022-10-11T08:40:07.169Z,94390.88
2022-10-11T08:41:14.627Z,94231.19
2022-10-11T08:42:19.036Z,94392.75
2022-10-11T08:43:44.627Z,94395.19
2022-10-11T08:45:22.907Z,94390.44
2022-10-11T08:46:12.156Z,94381.53
2022-10-11T08:47:16.293Z,94376.94
2022-10-11T08:48:18.595Z,94405.00
2022-10-11T08:49:19.330Z,94398.63
2022-10-11T08:50:20.365Z,94397.09
2022-10-11T08:51:33.825Z,94369.03
2022-10-11T08:52:48.439Z,94403.78
2022-10-11T08:53:48.018Z,94400.66
2022-10-11T08:54:50.291Z,94384.13
2022-10-11T08:55:51.261Z,94402.44
2022-10-11T08:56:48.586Z,94405.81
2022-10-11T08:57:52.535Z,94409.41
2022-10-11T08:58:58.146Z,94374.00
2022-10-11T09:00:01.208Z,94391.59
2022-10-11T09:00:59.402Z,94409.22
2022-10-11T09:02:12.397Z,94406.06
2022-10-11T09:03:39.153Z,94402.06
2022-10-11T09:04:35.856Z,94403.84
2022-10-11T09:05:35.668Z,94399.47
2022-10-11T09:06:39.747Z,94402.88
2022-10-11T09:08:13.692Z,94404.94
2022-10-11T09:09:39.921Z,94399.56
2022-10-11T09:10:51.766Z,94402.16
2022-10-11T09:12:00.627Z,94398.91
2022-10-11T09:13:30.928Z,94399.41
2022-10-11T09:14:36.642Z,94402.81
2022-10-11T09:15:48.382Z,94386.06
2022-10-11T09:16:55.310Z,94395.25
2022-10-11T09:17:51.956Z,94392.69
2022-10-11T09:19:12.469Z,94399.69
2022-10-11T09:20:41.389Z,94393.97
2022-10-11T09:22:07.207Z,94386.41
2022-10-11T09:23:32.997Z,94393.75
2022-10-11T09:24:32.204Z,94391.25
2022-10-11T09:25:49.458Z,94391.38
2022-10-11T09:27:15.540Z,94381.59
2022-10-11T09:28:22.022Z,94385.19
2022-10-11T09:29:37.172Z,94387.09
2022-10-11T09:30:35.973Z,94388.06
2022-10-11T09:31:33.483Z,94387.09
2022-10-11T09:32:39.466Z,94382.53
2022-10-11T09:33:50.711Z,94380.28
2022-10-11T09:34:55.921Z,94370.22
2022-10-11T09:35:52.924Z,94376.56
2022-10-11T09:37:18.451Z,94385.19
2022-10-11T09:38:52.361Z,94382.22
2022-10-11T09:40:06.387Z,94356.78
2022-10-11T09:41:15.516Z,94382.78
2022-10-11T09:42:12.535Z,94382.31
2022-10-11T09:43:09.544Z,94388.19
2022-10-11T09:44:07.677Z,94351.06
2022-10-11T09:45:20.815Z,94383.94
2022-10-11T09:46:32.488Z,94380.78
2022-10-11T09:47:40.866Z,94381.41
2022-10-11T09:48:41.395Z,94349.94
2022-10-11T09:49:42.787Z,94368.63
2022-10-11T09:50:39.591Z,94372.97
2022-10-11T09:51:36.931Z,94334.88
2022-10-11T09:52:33.735Z,94333.22
2022-10-11T09:53:53.664Z,94374.59
2022-10-11T09:54:54.508Z,94379.63
2022-10-11T09:56:04.475Z,94374.06
2022-10-11T09:57:02.296Z,94364.47
2022-10-11T09:57:59.395Z,94353.22
2022-10-11T09:59:18.784Z,94380.75
2022-10-11T10:00:24.969Z,94379.63
2022-10-11T10:01:26.301Z,94378.13
2022-10-11T10:02:26.137Z,94334.63
2022-10-11T10:03:32.120Z,94378.06
2022-10-11T10:04:28.818Z,94378.38
2022-10-11T10:05:34.236Z,94371.19
2022-10-11T10:06:30.816Z,94376.94
2022-10-11T10:07:30.255Z,94353.94
2022-10-11T10:08:29.716Z,94352.59
2022-10-11T10:09:30.442Z,94371.50
2022-10-11T10:10:39.099Z,94361.38
2022-10-11T10:11:38.850Z,94365.31
2022-10-11T10:12:35.479Z,94363.47
2022-10-11T10:13:51.442Z,94359.72
2022-10-11T10:15:08.017Z,94361.53
2022-10-11T10:16:05.716Z,94364.34
2022-10-11T10:17:13.653Z,94357.91
2022-10-11T10:18:37.515Z,94352.09
2022-10-11T10:19:45.401Z,94354.34
2022-10-11T10:20:52.097Z,94353.59
2022-10-11T10:21:52.232Z,94349.84
2022-10-11T10:22:49.533Z,94351.19
2022-10-11T10:23:54.864Z,94329.91
2022-10-11T10:24:52.081Z,94349.84
2022-10-11T10:25:51.459Z,94339.63
2022-10-11T10:27:10.467Z,94351.34
2022-10-11T10:28:23.279Z,94357.63
2022-10-11T10:29:21.115Z,94340.56
2022-10-11T10:30:19.509Z,94354.25
2022-10-11T10:31:49.580Z,94353.53
2022-10-11T10:32:55.027Z,94355.31
2022-10-11T10:33:54.412Z,94335.53
2022-10-11T10:35:08.384Z,94339.88
2022-10-11T10:36:18.780Z,94342.66
2022-10-11T10:37:50.655Z,94349.94
2022-10-11T10:39:01.675Z,94345.69
2022-10-11T10:40:14.377Z,94305.78
2022-10-11T10:41:14.360Z,94328.88
2022-10-11T10:42:15.680Z,94346.94
2022-10-11T10:43:27.756Z,94346.47
2022-10-11T10:44:24.358Z,94336.50
2022-10-11T10:45:28.368Z,94342.84
2022-10-11T10:46:37.073Z,94340.22
2022-10-11T10:48:11.222Z,94335.63
2022-10-11T10:49:48.889Z,94335.78
2022-10-11T10:50:48.400Z,94328.88
2022-10-11T10:52:05.596Z,94334.91
2022-10-11T10:53:20.865Z,94303.84
2022-10-11T10:54:59.385Z,94327.69
2022-10-11T10:56:11.084Z,94326.59
2022-10-11T10:57:24.865Z,94310.34
2022-10-11T10:58:42.645Z,94312.19
2022-10-11T10:59:42.285Z,94318.81
2022-10-11T11:00:46.657Z,94306.81
2022-10-11T11:02:15.883Z,94314.56
2022-10-11T11:03:24.198Z,94320.66
2022-10-11T11:04:34.216Z,94319.25
2022-10-11T11:05:55.531Z,94319.59
2022-10-11T11:07:02.499Z,94286.28
2022-10-11T11:08:05.220Z,94316.19
2022-10-11T11:09:37.299Z,94310.38
2022-10-11T11:10:53.711Z,94289.94
2022-10-11T11:11:50.273Z,94312.72
2022-10-11T11:13:24.243Z,94299.56
2022-10-11T11:15:05.869Z,94306.94
2022-10-11T11:16:19.360Z,94299.31
2022-10-11T11:17:30.216Z,94303.91
2022-10-11T11:18:38.293Z,94304.63
2022-10-11T11:20:22.178Z,94305.72
2022-10-11T11:21:30.959Z,94294.38
2022-10-11T11:22:46.027Z,94306.47
2022-10-11T11:24:06.021Z,94300.34
2022-10-11T11:25:26.752Z,94299.94
2022-10-11T11:26:48.774Z,94292.59
2022-10-11T11:28:03.475Z,94272.81
2022-10-11T11:29:57.332Z,94288.91
2022-10-11T11:31:26.769Z,94296.97
2022-10-11T11:32:45.937Z,94294.44
2022-10-11T11:34:04.469Z,94295.47
2022-10-11T11:35:09.817Z,94289.28
2022-10-11T11:36:13.927Z,94260.00
2022-10-11T11:37:26.011Z,94279.94
2022-10-11T11:38:51.671Z,94275.84
2022-10-11T11:39:53.961Z,94290.00
2022-10-11T11:40:58.183Z,94284.28
2022-10-11T11:42:18.624Z,94292.66
2022-10-11T11:43:26.258Z,94290.13
2022-10-11T11:44:32.751Z,94290.69
2022-10-11T11:45:51.635Z,94280.84
2022-10-11T11:46:56.429Z,94285.66
2022-10-11T11:48:02.807Z,94280.25
2022-10-11T11:49:06.853Z,94289.97
2022-10-11T11:50:09.169Z,94281.88
2022-10-11T11:51:11.522Z,94274.28
2022-10-11T11:52:14.943Z,94277.81
2022-10-11T11:53:18.271Z,94287.56
2022-10-11T11:54:49.608Z,94278.25
2022-10-11T11:56:13.038Z,94278.06
2022-10-11T11:57:15.456Z,94280.78
2022-10-11T11:58:24.074Z,94279.75
2022-10-11T11:59:32.346Z,94267.81
2022-10-11T12:00:54.824Z,94274.38
2022-10-11T12:02:03.561Z,94275.63
2022-10-11T12:03:10.865Z,94270.75
2022-10-11T12:04:37.807Z,94250.38
2022-10-11T12:05:36.219Z,94244.38
2022-10-11T12:06:40.278Z,94270.19
2022-10-11T12:08:04.475Z,94267.28